Time;durP1;ratioP1;P1;durP2;ratioP2;P2;SDS_P1;SDS_P2;PMS_P1;PMS_P2;Temp;Humidity;BMP_temperature;BMP_pressure;BME280_temperature;BME280_humidity;BME280_pressure;Samples;Min_cycle;Max_cycle;Signal;HPM_P1;HPM_P2
2022/08/26 00:01:56;;;;;;;39.78;14.65;;;20.70;99.90;;;19.84;100.00;101302.91;5005352;28;20061;-77
2022/08/26 00:04:24;;;;;;;40.83;14.80;;;20.70;99.90;;;19.93;100.00;101313.88;5022496;28;20026;-78
2022/08/26 00:06:50;;;;;;;46.00;14.40;;;20.70;99.90;;;19.92;100.00;101309.50;5004662;28;20075;-77
2022/08/26 00:09:16;;;;;;;44.38;16.38;;;20.70;99.90;;;19.85;100.00;101312.66;5023258;28;20025;-77
2022/08/26 00:11:45;;;;;;;46.90;15.63;;;20.80;99.90;;;19.91;100.00;101307.78;5003288;28;20564;-77
2022/08/26 00:14:16;;;;;;;44.45;14.27;;;20.70;99.90;;;19.79;100.00;101313.09;5021752;28;20030;-78
2022/08/26 00:16:43;;;;;;;42.67;15.02;;;20.80;99.90;;;19.91;100.00;101303.28;5006021;28;20025;-78
2022/08/26 00:19:09;;;;;;;47.78;15.10;;;20.70;99.90;;;19.85;100.00;101304.63;5005526;28;20437;-77
2022/08/26 00:21:35;;;;;;;50.03;15.10;;;20.70;99.90;;;19.82;100.00;101301.31;5004311;28;20028;-77
2022/08/26 00:24:01;;;;;;;44.92;16.00;;;20.70;99.90;;;19.81;100.00;101305.81;5021624;28;20037;-77
2022/08/26 00:26:32;;;;;;;48.33;15.88;;;20.70;99.90;;;19.87;100.00;101302.69;5018186;28;20030;-77
2022/08/26 00:28:58;;;;;;;38.78;15.25;;;20.70;99.90;;;19.85;100.00;101303.78;5002461;28;20108;-77
2022/08/26 00:31:23;;;;;;;52.28;15.95;;;20.70;99.90;;;19.81;100.00;101300.47;5021763;28;20109;-77
2022/08/26 00:33:49;;;;;;;41.55;15.82;;;20.70;99.90;;;19.81;100.00;101292.47;5020434;28;20065;-77
2022/08/26 00:36:15;;;;;;;56.00;16.55;;;20.70;99.90;;;19.87;100.00;101300.03;5021384;28;20064;-77
2022/08/26 00:38:41;;;;;;;49.45;16.02;;;20.70;99.90;;;19.90;100.00;101298.94;5021558;28;20036;-77
2022/08/26 00:41:12;;;;;;;42.15;16.65;;;20.80;99.90;;;19.94;100.00;101291.53;5018717;28;20108;-77
2022/08/26 00:43:38;;;;;;;46.40;17.85;;;20.80;99.90;;;19.92;100.00;101288.13;5019662;28;20612;-78
2022/08/26 00:46:13;;;;;;;53.40;18.92;;;20.80;99.90;;;19.94;100.00;101286.19;5003557;28;20049;-77
2022/08/26 00:48:42;;;;;;;46.10;18.67;;;20.80;99.90;;;19.96;100.00;101281.56;5003938;28;20029;-77
2022/08/26 00:51:17;;;;;;;54.88;19.33;;;20.80;99.90;;;19.90;100.00;101280.22;5002023;28;20052;-77
2022/08/26 00:54:04;;;;;;;53.88;18.38;;;20.80;99.90;;;19.93;100.00;101269.28;5018515;28;20033;-77
2022/08/26 00:56:53;;;;;;;55.15;19.80;;;20.80;99.90;;;19.95;100.00;101278.03;5018897;28;20041;-77
2022/08/26 00:59:19;;;;;;;65.15;19.55;;;20.80;99.90;;;19.96;100.00;101274.41;5003352;28;20045;-77
2022/08/26 01:01:45;;;;;;;53.33;18.27;;;20.80;99.90;;;19.90;100.00;101274.88;5018043;28;20034;-77
2022/08/26 01:04:17;;;;;;;47.42;18.23;;;20.80;99.90;;;19.95;100.00;101274.50;5021653;28;20029;-77
2022/08/26 01:06:43;;;;;;;58.70;18.02;;;20.80;99.90;;;19.96;100.00;101276.22;5004236;28;20038;-77
2022/08/26 01:09:09;;;;;;;60.00;18.50;;;20.80;99.90;;;19.97;100.00;101268.06;5018665;28;20375;-77
2022/08/26 01:11:38;;;;;;;52.90;18.48;;;20.80;99.90;;;19.97;100.00;101267.22;5019144;28;20060;-77
2022/08/26 01:14:06;;;;;;;59.55;18.52;;;20.80;99.90;;;19.92;100.00;101266.75;5048061;22;20049;-77
2022/08/26 01:16:33;;;;;;;59.13;18.38;;;20.80;99.90;;;19.95;100.00;101266.50;5067943;28;20032;-77
2022/08/26 01:19:27;;;;;;;54.58;19.88;;;20.80;99.90;;;19.94;100.00;101262.13;5046167;28;20136;-77
2022/08/26 01:22:22;;;;;;;69.25;18.80;;;20.80;99.90;;;19.92;100.00;101269.41;5042408;28;20044;-77
2022/08/26 01:24:49;;;;;;;56.25;19.25;;;20.80;99.90;;;19.96;100.00;101268.22;5041423;28;20038;-76
2022/08/26 01:27:19;;;;;;;70.15;19.27;;;20.80;99.90;;;19.93;100.00;101269.28;5021898;28;20036;-77
2022/08/26 01:29:48;;;;;;;56.22;18.15;;;20.80;99.90;;;19.97;100.00;101270.75;5023703;28;20030;-76
2022/08/26 01:32:18;;;;;;;63.38;20.67;;;20.80;99.90;;;19.97;100.00;101264.56;5024096;28;20034;-76
2022/08/26 01:34:47;;;;;;;58.08;19.63;;;20.80;99.90;;;20.06;100.00;101270.06;5020310;28;20033;-77
2022/08/26 01:37:22;;;;;;;54.97;19.95;;;20.90;99.90;;;20.08;100.00;101264.56;5019234;28;20482;-77
2022/08/26 01:39:52;;;;;;;69.97;20.57;;;20.90;99.90;;;20.04;100.00;101260.44;5004606;28;20552;-77
2022/08/26 01:42:22;;;;;;;62.67;20.15;;;20.80;99.90;;;19.99;100.00;101274.16;5041166;28;20339;-76
2022/08/26 01:45:02;;;;;;;59.35;20.73;;;20.80;99.90;;;20.00;100.00;101277.66;5039441;28;20056;-76
2022/08/26 01:47:35;;;;;;;72.43;20.73;;;20.90;99.90;;;20.02;100.00;101271.25;5053739;28;20489;-76
2022/08/26 01:50:06;;;;;;;58.33;20.73;;;20.90;99.90;;;20.06;100.00;101278.06;5018570;28;20034;-79
2022/08/26 01:52:36;;;;;;;50.97;19.23;;;20.90;99.90;;;20.11;100.00;101275.03;5051753;28;20417;-77
2022/08/26 01:55:04;;;;;;;59.80;20.73;;;20.90;99.90;;;20.11;100.00;101275.03;5039034;28;20025;-77
2022/08/26 01:57:30;;;;;;;57.70;21.38;;;20.90;99.90;;;20.07;100.00;101276.25;5051168;28;20742;-75
2022/08/26 02:00:01;;;;;;;61.83;20.98;;;20.90;99.90;;;20.07;100.00;101271.75;5036691;28;20048;-77
2022/08/26 02:02:27;;;;;;;60.42;22.08;;;20.90;99.90;;;20.12;100.00;101271.38;5003199;28;20037;-78
2022/08/26 02:05:03;;;;;;;65.93;22.25;;;20.90;99.90;;;20.10;100.00;101269.81;5025139;28;20032;-77
2022/08/26 02:07:30;;;;;;;62.83;21.60;;;21.00;99.90;;;20.14;100.00;101271.25;5020683;28;20026;-76
2022/08/26 02:09:56;;;;;;;70.30;22.50;;;20.90;99.90;;;20.12;100.00;101268.69;5020977;28;20072;-76
2022/08/26 02:12:24;;;;;;;68.95;22.45;;;21.00;99.90;;;20.18;100.00;101273.56;5001815;28;20034;-77
2022/08/26 02:14:54;;;;;;;67.85;23.20;;;21.00;99.90;;;20.15;100.00;101265.81;5023092;28;20040;-78
2022/08/26 02:17:28;;;;;;;72.00;23.25;;;21.00;99.90;;;20.13;100.00;101259.72;5052393;28;20036;-76
2022/08/26 02:19:54;;;;;;;62.53;23.33;;;21.00;99.90;;;20.21;100.00;101267.97;5021523;28;20087;-77
2022/08/26 02:22:22;;;;;;;68.72;23.88;;;21.00;99.90;;;20.23;100.00;101270.53;5036630;28;20109;-76
2022/08/26 02:25:12;;;;;;;73.47;24.20;;;21.00;99.90;;;20.13;100.00;101262.41;5018538;28;20076;-76
2022/08/26 02:27:39;;;;;;;74.28;24.45;;;21.00;99.90;;;20.17;100.00;101263.88;5040371;28;20493;-76
2022/08/26 02:30:21;;;;;;;61.08;23.85;;;21.00;99.90;;;20.19;100.00;101253.03;5022641;28;20435;-76
2022/08/26 02:32:48;;;;;;;74.50;24.95;;;21.00;99.90;;;20.22;100.00;101259.00;5020543;28;20422;-77
2022/08/26 02:35:15;;;;;;;66.38;24.27;;;21.00;99.90;;;20.16;100.00;101262.16;5019270;28;20064;-77
2022/08/26 02:37:44;;;;;;;75.20;25.83;;;21.00;99.90;;;20.16;100.00;101267.50;5018512;28;20038;-77
2022/08/26 02:40:13;;;;;;;81.07;25.60;;;21.00;99.90;;;20.15;100.00;101249.75;5022623;28;20030;-77
2022/08/26 02:42:39;;;;;;;78.78;25.35;;;20.90;99.90;;;20.12;100.00;101246.47;5039584;28;20508;-75
2022/08/26 02:45:06;;;;;;;71.07;25.55;;;20.90;99.90;;;20.09;100.00;101252.91;5021540;28;20021;-77
2022/08/26 02:47:36;;;;;;;67.95;27.10;;;20.90;99.90;;;20.09;100.00;101247.56;5019022;28;20029;-77
2022/08/26 02:50:03;;;;;;;80.78;27.17;;;20.90;99.90;;;20.13;100.00;101248.16;5021927;28;20040;-78
2022/08/26 02:52:29;;;;;;;92.38;26.15;;;20.90;99.90;;;20.13;100.00;101243.69;5022674;28;20624;-77
2022/08/26 02:54:54;;;;;;;85.93;27.80;;;21.00;99.90;;;20.16;100.00;101240.75;5022479;28;20068;-77
2022/08/26 02:57:20;;;;;;;88.95;28.80;;;21.00;99.90;;;20.13;100.00;101237.47;5019061;28;20076;-77
2022/08/26 02:59:46;;;;;;;100.32;30.65;;;20.90;99.90;;;20.08;100.00;101233.31;5017476;28;20026;-77
2022/08/26 03:02:12;;;;;;;74.38;26.05;;;20.90;99.90;;;20.10;100.00;101241.22;5020430;28;20482;-77
2022/08/26 03:04:39;;;;;;;79.63;29.67;;;20.90;99.90;;;20.11;100.00;101239.41;5007441;28;20045;-77
2022/08/26 03:07:06;;;;;;;96.07;30.30;;;20.90;99.90;;;20.12;100.00;101239.28;5037741;28;20042;-76
2022/08/26 03:09:32;;;;;;;79.95;29.05;;;20.90;99.90;;;20.11;100.00;101234.06;5038738;28;21072;-77
2022/08/26 03:11:58;;;;;;;78.68;29.20;;;20.90;99.90;;;20.10;100.00;101233.22;5022182;28;20037;-77
2022/08/26 03:14:24;;;;;;;87.55;30.80;;;20.90;99.90;;;20.14;100.00;101234.69;5024383;28;20413;-78
2022/08/26 03:16:54;;;;;;;85.60;31.33;;;20.90;99.90;;;20.12;100.00;101233.09;5026114;28;20113;-78
2022/08/26 03:19:24;;;;;;;85.70;29.98;;;20.90;99.90;;;20.13;100.00;101233.00;5025667;28;20034;-77
2022/08/26 03:21:52;;;;;;;117.35;36.30;;;21.00;99.90;;;20.12;100.00;101228.59;5038539;28;20026;-77
2022/08/26 03:24:18;;;;;;;108.90;36.33;;;20.90;99.90;;;20.08;100.00;101224.47;5052239;28;20038;-77
2022/08/26 03:26:46;;;;;;;107.65;36.70;;;20.90;99.90;;;20.08;100.00;101224.47;5029539;28;20029;-77
2022/08/26 03:31:56;;;;;;;116.50;34.00;;;20.90;99.90;;;20.14;100.00;101221.31;5023931;28;20041;-76
2022/08/26 03:34:22;;;;;;;132.32;37.97;;;20.90;99.90;;;20.08;100.00;101224.47;5021384;28;20061;-77
2022/08/26 03:36:49;;;;;;;110.03;36.28;;;20.90;99.90;;;20.00;100.00;101224.22;5022880;28;20713;-76
2022/08/26 03:39:14;;;;;;;133.40;39.40;;;20.90;99.90;;;20.03;100.00;101221.31;5027662;28;20033;-77
2022/08/26 03:41:43;;;;;;;158.05;42.00;;;20.90;99.90;;;20.05;100.00;101222.03;5025236;28;20032;-77
2022/08/26 03:44:10;;;;;;;96.57;36.42;;;20.90;99.90;;;20.11;100.00;101224.25;5053551;28;20410;-77
2022/08/26 03:46:37;;;;;;;223.63;50.40;;;20.90;99.90;;;20.14;100.00;101221.31;5021941;28;20021;-76
2022/08/26 03:49:07;;;;;;;205.00;48.05;;;20.90;99.90;;;20.18;100.00;101224.59;5023610;28;20033;-78
2022/08/26 03:51:37;;;;;;;212.55;48.22;;;21.00;99.90;;;20.18;100.00;101222.78;5025705;28;20550;-77
2022/08/26 03:54:04;;;;;;;112.72;39.90;;;21.00;99.90;;;20.18;100.00;101217.44;5023946;28;20041;-78
2022/08/26 03:56:32;;;;;;;128.00;38.90;;;21.00;99.90;;;20.22;100.00;101221.56;5024049;28;20033;-76
2022/08/26 03:59:02;;;;;;;273.42;58.42;;;20.90;99.90;;;20.17;100.00;101225.56;5019913;28;20041;-77
2022/08/26 04:01:28;;;;;;;91.97;35.15;;;20.90;99.90;;;20.19;100.00;101212.91;5042088;28;20024;-78
2022/08/26 04:03:58;;;;;;;141.65;42.42;;;21.00;99.90;;;20.22;100.00;101220.72;5054051;28;20109;-78
2022/08/26 04:06:34;;;;;;;85.30;35.35;;;21.00;99.90;;;20.27;100.00;101221.19;5024174;28;20087;-77
2022/08/26 04:09:05;;;;;;;245.02;50.72;;;21.00;99.90;;;20.29;100.00;101217.41;5053857;28;20405;-77
2022/08/26 04:11:34;;;;;;;158.25;45.63;;;21.00;99.90;;;20.27;100.00;101222.03;5003489;28;20037;-78
2022/08/26 04:14:04;;;;;;;109.75;37.28;;;21.00;99.90;;;20.23;100.00;101220.56;5025523;28;20033;-77
2022/08/26 04:16:32;;;;;;;272.75;55.03;;;21.00;99.90;;;20.27;100.00;101215.84;5041392;28;20501;-77
2022/08/26 04:18:58;;;;;;;270.05;46.75;;;21.00;99.90;;;20.26;100.00;101227.53;5023698;28;20026;-77
2022/08/26 04:21:25;;;;;;;204.65;44.90;;;21.00;99.90;;;20.18;100.00;101217.44;5020953;28;20499;-78
2022/08/26 04:23:53;;;;;;;199.25;45.20;;;20.90;99.90;;;20.11;100.00;101213.53;5020710;28;20041;-78
2022/08/26 04:26:21;;;;;;;231.57;46.20;;;20.90;99.90;;;20.09;100.00;101218.16;5027262;28;20121;-76
2022/08/26 04:28:49;;;;;;;164.60;42.90;;;20.90;99.90;;;20.11;100.00;101216.22;5024292;28;20034;-76
2022/08/26 04:31:18;;;;;;;310.25;46.70;;;20.90;99.90;;;20.01;100.00;101221.44;5039818;28;20116;-78
2022/08/26 04:33:47;;;;;;;216.57;46.72;;;20.90;99.90;;;20.03;100.00;101221.31;5036042;28;20041;-78
2022/08/26 04:36:13;;;;;;;260.25;46.63;;;20.90;99.90;;;20.12;100.00;101225.94;5038303;28;20029;-78
2022/08/26 04:38:39;;;;;;;489.67;66.05;;;20.90;99.90;;;20.08;100.00;101221.78;5026804;28;20034;-76
2022/08/26 04:41:10;;;;;;;433.05;58.97;;;20.90;99.90;;;20.08;100.00;101219.13;5023260;28;20100;-76
2022/08/26 04:43:36;;;;;;;612.28;74.55;;;20.80;99.90;;;19.95;100.00;101229.06;5023000;28;20038;-77
2022/08/26 04:46:04;;;;;;;479.52;59.63;;;20.80;99.90;;;20.02;100.00;101227.63;5021593;28;20030;-77
2022/08/26 04:48:31;;;;;;;426.15;55.92;;;20.80;99.90;;;19.97;100.00;101232.47;5042618;28;20034;-76
2022/08/26 04:50:58;;;;;;;451.67;63.17;;;20.80;99.90;;;19.95;100.00;101229.91;5025173;28;20497;-76
2022/08/26 04:53:28;;;;;;;554.58;70.28;;;20.80;99.90;;;19.97;100.00;101238.66;5023676;28;20179;-77
2022/08/26 04:55:54;;;;;;;478.40;61.53;;;20.80;99.90;;;19.96;100.00;101228.13;5021462;28;20410;-77
2022/08/26 04:58:23;;;;;;;423.20;59.30;;;20.70;99.90;;;19.96;100.00;101228.13;5019518;28;20394;-77
2022/08/26 05:00:55;;;;;;;566.25;65.13;;;20.70;99.90;;;19.86;100.00;101219.97;5023964;28;20033;-77
2022/08/26 05:03:22;;;;;;;524.30;66.05;;;20.70;99.90;;;19.85;100.00;101224.47;5038420;28;20025;-77
2022/08/26 05:05:48;;;;;;;466.73;63.53;;;20.70;99.90;;;19.85;100.00;101219.13;5022639;28;20026;-76
2022/08/26 05:08:16;;;;;;;352.42;59.75;;;20.70;99.90;;;19.96;100.00;101220.94;5020109;28;20068;-77
2022/08/26 05:10:51;;;;;;;474.08;70.13;;;20.80;99.90;;;19.97;100.00;101219.97;5020273;28;20034;-77
2022/08/26 05:13:19;;;;;;;399.23;67.15;;;20.80;99.90;;;19.99;100.00;101222.53;5024159;28;20029;-77
2022/08/26 05:15:47;;;;;;;397.92;68.45;;;20.80;99.90;;;20.06;100.00;101221.06;5024735;28;20038;-77
2022/08/26 05:18:15;;;;;;;373.60;66.28;;;20.80;99.90;;;20.10;100.00;101219.00;5022123;28;20439;-77
2022/08/26 05:20:45;;;;;;;457.85;73.35;;;20.90;99.90;;;20.06;100.00;101216.59;5010064;28;20048;-77
2022/08/26 05:23:13;;;;;;;390.60;70.10;;;20.90;99.90;;;20.07;100.00;101214.75;5022473;28;20425;-77
2022/08/26 05:25:42;;;;;;;395.42;64.50;;;20.90;99.90;;;20.08;100.00;101216.44;5025626;28;21297;-77
2022/08/26 05:28:14;;;;;;;419.38;64.00;;;20.90;99.90;;;20.12;100.00;101219.75;5022844;28;20049;-77
2022/08/26 05:30:40;;;;;;;378.55;64.70;;;20.90;99.90;;;20.20;100.00;101228.84;5019558;28;20120;-78
2022/08/26 05:33:09;;;;;;;406.77;70.30;;;21.00;99.90;;;20.26;100.00;101228.38;5017935;28;20113;-76
2022/08/26 05:35:37;;;;;;;284.50;61.95;;;21.00;99.90;;;20.19;100.00;101219.09;5039887;28;20036;-77
2022/08/26 05:38:08;;;;;;;181.95;51.47;;;21.00;99.90;;;20.30;100.00;101218.25;5025059;28;20021;-76
2022/08/26 05:40:41;;;;;;;122.97;44.05;;;21.10;99.90;;;20.50;100.00;101227.38;5021282;28;20104;-77
2022/08/26 05:43:12;;;;;;;165.27;48.63;;;21.30;99.90;;;20.66;100.00;101224.34;5020694;28;20080;-76
2022/08/26 05:45:45;;;;;;;143.65;49.03;;;21.40;99.90;;;20.87;100.00;101213.69;5038552;28;20030;-76
2022/08/26 05:48:13;;;;;;;170.27;50.28;;;21.60;99.90;;;20.96;100.00;101212.94;5023261;28;20052;-77
2022/08/26 05:50:52;;;;;;;115.28;43.90;;;21.60;99.90;;;21.06;100.00;101216.56;5024144;28;20034;-76
2022/08/26 05:53:20;;;;;;;120.90;43.97;;;21.70;99.90;;;21.17;100.00;101220.19;5036464;28;20029;-78
2022/08/26 05:55:52;;;;;;;101.40;41.40;;;21.70;99.90;;;21.15;100.00;101219.44;5020893;28;20030;-78
2022/08/26 05:58:20;;;;;;;91.10;38.15;;;21.80;99.90;;;21.16;100.00;101221.97;5038426;28;20052;-76
2022/08/26 06:01:13;;;;;;;97.43;39.50;;;21.90;99.90;;;21.28;100.00;101223.63;5023694;28;20486;-77
2022/08/26 06:03:43;;;;;;;93.85;37.75;;;21.90;99.90;;;21.26;100.00;101222.91;5021836;28;20025;-77
2022/08/26 06:06:32;;;;;;;97.45;36.85;;;21.90;99.90;;;21.28;100.00;101226.31;5020397;28;20036;-77
2022/08/26 06:09:00;;;;;;;75.97;35.13;;;22.00;99.90;;;21.31;100.00;101227.88;5035979;28;20101;-77
2022/08/26 06:11:28;;;;;;;84.63;35.03;;;22.00;99.90;;;21.23;100.00;101233.03;5023735;28;20071;-76
2022/08/26 06:13:57;;;;;;;84.45;34.33;;;22.00;99.90;;;21.25;100.00;101226.59;5022420;28;20091;-77
2022/08/26 06:16:24;;;;;;;75.35;33.50;;;22.00;99.90;;;21.26;100.00;101225.59;5038537;28;20056;-78
2022/08/26 06:18:52;;;;;;;88.18;34.67;;;22.10;99.90;;;21.36;100.00;101228.38;5021580;28;20033;-78
2022/08/26 06:21:28;;;;;;;81.60;31.95;;;22.10;99.90;;;21.50;100.00;101225.38;5018922;28;20528;-76
2022/08/26 06:26:51;;;;;;;67.72;29.98;;;22.30;99.90;;;21.78;100.00;101224.84;5038109;28;20192;-77
2022/08/26 06:29:20;;;;;;;62.83;29.30;;;22.40;99.90;;;22.01;100.00;101225.53;5020780;28;20021;-78
2022/08/26 06:31:48;;;;;;;68.95;28.55;;;22.60;99.90;;;22.08;100.00;101219.50;5020700;28;20036;-77
2022/08/26 06:34:17;;;;;;;61.97;27.25;;;22.60;99.90;;;22.09;100.00;101231.06;5017932;28;20025;-77
2022/08/26 06:36:43;;;;;;;64.68;27.20;;;22.70;99.90;;;21.97;100.00;101233.00;5022244;28;20022;-78
2022/08/26 06:39:13;;;;;;;69.68;26.77;;;22.70;99.90;;;22.03;100.00;101237.84;5041181;28;20029;-77
2022/08/26 06:41:40;;;;;;;59.42;25.77;;;22.70;99.90;;;21.96;100.00;101230.44;5020840;28;20656;-77
2022/08/26 06:44:09;;;;;;;55.05;25.80;;;22.70;99.90;;;22.00;100.00;101235.41;5019167;28;20100;-77
2022/08/26 06:46:35;;;;;;;66.85;25.23;;;22.60;99.90;;;21.83;100.00;101230.66;5020059;28;20025;-78
2022/08/26 06:49:00;;;;;;;70.47;26.73;;;22.60;99.90;;;21.81;100.00;101233.47;5023223;28;20138;-78
2022/08/26 06:51:30;;;;;;;57.55;26.40;;;22.60;99.90;;;21.90;100.00;101238.06;5023874;28;20512;-77
2022/08/26 06:54:00;;;;;;;64.85;27.33;;;22.70;99.90;;;22.01;100.00;101238.94;5034256;28;20037;-78
2022/08/26 06:56:40;;;;;;;64.40;28.40;;;22.70;99.90;;;22.02;100.00;101238.81;5020407;28;20041;-77
2022/08/26 06:59:08;;;;;;;60.50;26.20;;;22.70;99.90;;;21.97;100.00;101240.22;5019780;28;20033;-78
2022/08/26 07:01:41;;;;;;;56.03;27.45;;;22.80;99.90;;;22.21;100.00;101234.53;5025006;28;20030;-78
2022/08/26 07:04:13;;;;;;;60.55;25.63;;;23.00;99.90;;;22.40;100.00;101245.38;5022618;28;20050;-78
2022/08/26 07:06:41;;;;;;;63.53;24.83;;;23.00;99.90;;;22.30;100.00;101231.06;5020815;28;20117;-77
2022/08/26 07:09:08;;;;;;;61.30;25.90;;;23.10;99.90;;;22.48;100.00;101237.50;5017248;28;20167;-78
2022/08/26 07:11:38;;;;;;;61.38;24.98;;;23.10;99.90;;;22.55;100.00;101232.41;5018439;28;20091;-78
2022/08/26 07:14:04;;;;;;;57.00;24.63;;;23.30;99.90;;;22.80;100.00;101240.94;5039965;28;20084;-78
2022/08/26 07:16:31;;;;;;;66.90;24.40;;;23.40;99.90;;;23.07;100.00;101230.41;5021518;28;20402;-78
2022/08/26 07:18:58;;;;;;;55.63;23.25;;;23.70;99.90;;;23.65;100.00;101231.34;5036613;28;20113;-78
2022/08/26 07:21:27;;;;;;;52.40;22.45;;;24.20;99.90;;;24.27;100.00;101240.66;5016424;28;20397;-77
2022/08/26 07:23:53;;;;;;;57.53;21.15;;;25.00;99.90;;;26.13;100.00;101240.06;5021595;28;20037;-77
2022/08/26 07:26:23;;;;;;;46.40;20.35;;;25.90;99.90;;;26.35;93.24;101231.44;5023373;28;20033;-78
2022/08/26 07:28:54;;;;;;;47.28;19.55;;;26.50;99.90;;;26.51;91.23;101235.19;5021184;28;20042;-78
2022/08/26 07:31:23;;;;;;;53.53;21.00;;;26.60;99.90;;;26.17;91.30;101241.44;5034067;28;20042;-77
2022/08/26 07:33:50;;;;;;;49.03;19.13;;;26.60;99.90;;;26.10;92.24;101238.56;5001926;28;20389;-77
2022/08/26 07:36:18;;;;;;;50.47;20.60;;;26.50;99.90;;;26.01;92.43;101236.00;5005385;28;20104;-77
2022/08/26 07:38:44;;;;;;;45.53;19.67;;;26.40;99.90;;;25.84;93.65;101238.53;5038334;28;20029;-78
2022/08/26 07:41:12;;;;;;;45.10;19.15;;;26.30;99.90;;;25.76;94.32;101230.38;5047716;28;20753;-77
2022/08/26 07:43:39;;;;;;;40.58;19.38;;;26.20;99.90;;;25.66;93.28;101227.81;5018760;28;20041;-78
2022/08/26 07:46:05;;;;;;;39.78;18.80;;;26.10;99.90;;;25.53;93.87;101235.47;5018408;28;20044;-77
2022/08/26 07:48:31;;;;;;;47.90;20.63;;;25.90;99.90;;;25.21;95.78;101231.50;5023343;28;20026;-77
2022/08/26 07:50:58;;;;;;;43.60;21.30;;;25.80;99.90;;;25.16;96.71;101231.94;5021148;28;20406;-77
2022/08/26 07:53:23;;;;;;;46.80;22.17;;;25.70;99.90;;;25.13;97.26;101237.63;5020102;28;20037;-78
2022/08/26 07:55:52;;;;;;;41.42;21.38;;;25.60;99.90;;;25.02;97.61;101234.31;5022739;28;20254;-78
2022/08/26 07:58:18;;;;;;;47.38;20.80;;;25.50;99.90;;;24.85;98.46;101231.44;5022680;28;20034;-77
2022/08/26 08:00:44;;;;;;;47.97;22.17;;;25.50;99.90;;;24.78;98.77;101241.16;5026971;28;20151;-77
2022/08/26 08:03:11;;;;;;;39.95;21.48;;;25.30;99.90;;;24.52;100.00;101236.47;5028603;28;20492;-78
2022/08/26 08:05:37;;;;;;;49.65;21.95;;;25.20;99.90;;;24.52;100.00;101233.78;5033182;28;20103;-78
2022/08/26 08:08:06;;;;;;;53.15;22.80;;;25.20;99.90;;;24.53;100.00;101227.38;5026233;28;20466;-78
2022/08/26 08:10:35;;;;;;;40.20;20.73;;;25.10;99.90;;;24.51;100.00;101244.69;5016154;28;20026;-77
2022/08/26 08:13:01;;;;;;;47.25;22.42;;;25.00;99.90;;;24.36;100.00;101231.72;5034021;28;20521;-78
2022/08/26 08:15:30;;;;;;;49.35;22.77;;;25.00;99.90;;;24.36;100.00;101234.41;5033829;28;20076;-79
2022/08/26 08:18:00;;;;;;;52.80;22.52;;;25.00;99.90;;;24.38;100.00;101228.84;5034210;28;20525;-78
2022/08/26 08:20:27;;;;;;;46.20;24.52;;;25.10;99.90;;;24.53;100.00;101227.38;5033759;28;20088;-78
2022/08/26 08:22:53;;;;;;;48.38;24.15;;;25.10;99.90;;;24.66;100.00;101223.50;5035775;28;20156;-78
2022/08/26 08:25:20;;;;;;;47.42;23.55;;;25.30;99.90;;;24.94;99.82;101218.91;5035872;28;20525;-78
2022/08/26 08:27:47;;;;;;;47.42;24.65;;;25.40;99.90;;;25.06;98.44;101215.00;5032710;28;20041;-78
2022/08/26 08:30:16;;;;;;;51.60;24.50;;;25.70;99.90;;;25.40;97.05;101217.00;5015949;28;20075;-78
2022/08/26 08:32:43;;;;;;;52.05;24.23;;;25.70;99.90;;;25.08;97.00;101209.47;5015291;28;20033;-78
2022/08/26 08:35:12;;;;;;;52.20;24.88;;;25.80;99.90;;;25.21;96.86;101214.50;5033392;28;20037;-78
2022/08/26 08:37:39;;;;;;;52.33;24.40;;;25.80;99.90;;;25.28;96.47;101216.41;5032888;28;20037;-78
2022/08/26 08:40:08;;;;;;;42.70;25.20;;;25.80;99.90;;;25.26;95.93;101212.16;5032340;28;20057;-78
2022/08/26 08:42:47;;;;;;;50.80;25.60;;;25.70;99.90;;;25.12;96.23;101205.47;5046396;28;20116;-78
2022/08/26 08:45:30;;;;;;;55.35;25.35;;;25.70;99.90;;;25.07;96.78;101208.59;5041976;28;20025;-78
2022/08/26 08:48:00;;;;;;;42.60;21.77;;;25.70;99.90;;;25.25;95.17;101202.38;5045998;28;20083;-78
2022/08/26 08:50:42;;;;;;;49.95;23.42;;;25.80;99.90;;;25.58;94.22;101201.63;5032320;28;20033;-78
2022/08/26 08:53:16;;;;;;;54.05;23.65;;;25.80;99.90;;;25.44;94.62;101204.03;5014619;28;20029;-78
2022/08/26 08:56:03;;;;;;;47.47;21.67;;;26.10;99.90;;;25.93;92.50;101205.25;5006655;28;20050;-78
2022/08/26 08:58:58;;;;;;;41.28;20.42;;;26.40;99.90;;;26.12;88.27;101203.31;5041206;28;20418;-79
2022/08/26 09:02:04;;;;;;;38.40;20.20;;;26.50;99.90;;;26.37;87.85;101212.34;5026899;28;20521;-79
2022/08/26 09:05:15;;;;;;;39.17;20.88;;;26.90;99.90;;;27.23;84.82;101205.81;5025870;28;20057;-79
2022/08/26 09:08:04;;;;;;;37.53;18.85;;;27.50;99.90;;;27.27;81.97;101206.34;5026833;28;20399;-77
2022/08/26 09:10:48;;;;;;;44.97;20.75;;;27.60;99.90;;;27.38;82.19;101201.41;5042601;28;20025;-78
2022/08/26 09:13:19;;;;;;;47.83;21.70;;;27.70;99.90;;;27.25;81.13;101208.34;5025317;28;20025;-78
2022/08/26 09:16:05;;;;;;;44.17;20.70;;;27.80;99.90;;;27.62;82.29;101213.22;5040762;28;20048;-78
2022/08/26 09:19:02;;;;;;;45.07;21.93;;;28.10;99.90;;;27.72;79.81;101219.28;5026688;28;20064;-78
2022/08/26 09:21:28;;;;;;;;;;;28.10;99.90;;;27.78;80.62;101209.66;5026700;28;20034;-77
2022/08/26 09:23:55;;;;;;;41.38;20.58;;;28.20;99.90;;;27.96;79.52;101210.28;5025486;28;20353;-79
2022/08/26 09:26:45;;;;;;;58.75;21.60;;;28.30;99.90;;;28.06;80.71;101203.88;5027279;28;20061;-78
2022/08/26 09:29:24;;;;;;;55.63;20.45;;;28.40;99.90;;;28.00;78.88;101211.63;5026281;28;20061;-79
2022/08/26 09:32:11;;;;;;;50.40;20.55;;;28.50;99.90;;;28.01;78.82;101217.91;5025438;28;20037;-78
2022/08/26 09:35:04;;;;;;;41.47;19.65;;;28.40;99.90;;;27.82;78.00;101198.31;5018675;28;20024;-77
2022/08/26 09:37:42;;;;;;;44.00;18.30;;;28.40;99.90;;;27.90;80.41;101204.75;5019085;28;20053;-78
2022/08/26 09:40:31;;;;;;;40.88;18.20;;;28.40;99.90;;;27.88;77.56;101207.59;5027250;28;20068;-77
2022/08/26 09:43:20;;;;;;;43.88;20.17;;;28.30;99.90;;;27.65;78.04;101193.97;5025816;28;20033;-77
2022/08/26 09:46:21;;;;;;;46.15;18.55;;;28.20;99.90;;;27.67;79.96;101204.59;5032557;28;20118;-78
2022/08/26 09:48:47;;;;;;;39.15;18.35;;;28.20;99.90;;;27.81;79.38;101204.72;5041992;28;20034;-78
2022/08/26 09:51:27;;;;;;;35.55;16.83;;;28.30;99.90;;;27.93;78.44;101207.94;5032724;28;20029;-78
2022/08/26 09:54:03;;;;;;;33.85;16.38;;;28.40;99.90;;;28.03;78.80;101207.75;5026424;28;20033;-78
2022/08/26 09:56:41;;;;;;;31.77;17.02;;;28.40;99.90;;;27.81;78.27;101204.72;5023450;28;20045;-78
2022/08/26 09:59:30;;;;;;;32.95;16.63;;;28.30;99.90;;;27.79;78.76;101203.22;5021054;28;20395;-77
2022/08/26 10:02:23;;;;;;;39.70;16.05;;;28.20;99.90;;;27.62;77.91;101191.56;5034094;28;20032;-78
2022/08/26 10:04:56;;;;;;;35.30;15.35;;;28.20;99.90;;;27.81;77.21;101188.50;5018797;28;20048;-77
2022/08/26 10:07:48;;;;;;;38.55;15.85;;;28.30;99.90;;;27.76;77.25;101192.75;5018067;28;20136;-78
2022/08/26 10:10:39;;;;;;;31.33;15.07;;;28.30;99.90;;;27.87;77.00;101191.56;5022290;28;20038;-78
2022/08/26 10:13:30;;;;;;;30.63;14.27;;;28.40;99.90;;;27.95;76.78;101186.97;5051044;28;20136;-77
2022/08/26 10:16:24;;;;;;;33.30;15.10;;;28.40;99.90;;;28.03;77.41;101183.38;5022576;28;20038;-79